createdAt,value
2019-02-25T00:02:03.408Z,4.37
2019-02-25T00:06:55.760Z,3.02
2019-02-25T00:09:21.901Z,3.77
2019-02-25T00:11:50.391Z,3.05
2019-02-25T00:14:16.571Z,3.77
2019-02-25T00:16:42.680Z,3.87
2019-02-25T00:19:08.851Z,4.47
2019-02-25T00:21:35.007Z,4.10
2019-02-25T00:24:01.244Z,3.37
2019-02-25T00:26:29.445Z,4.87
2019-02-25T00:28:56.592Z,3.80
2019-02-25T00:31:22.816Z,3.75
2019-02-25T00:33:49.325Z,3.65
2019-02-25T00:36:15.544Z,2.33
2019-02-25T00:38:41.749Z,3.42
2019-02-25T00:41:08.020Z,2.10
2019-02-25T00:43:34.295Z,2.95
2019-02-25T00:46:00.638Z,4.70
2019-02-25T00:48:26.822Z,6.03
2019-02-25T00:50:53.131Z,5.30
2019-02-25T00:53:19.341Z,5.78
2019-02-25T00:55:47.474Z,4.65
2019-02-25T00:58:13.665Z,6.10
2019-02-25T01:00:41.485Z,3.17
2019-02-25T01:03:12.493Z,1.67
2019-02-25T01:05:38.629Z,3.00
2019-02-25T01:08:07.716Z,3.02
2019-02-25T01:10:37.144Z,3.80
2019-02-25T01:13:06.504Z,3.20
2019-02-25T01:15:32.699Z,4.42
2019-02-25T01:18:00.011Z,3.65
2019-02-25T01:20:26.282Z,3.40
2019-02-25T01:22:52.537Z,3.42
2019-02-25T01:25:19.021Z,2.92
2019-02-25T01:27:46.230Z,3.30
2019-02-25T01:30:14.367Z,3.85
2019-02-25T01:32:40.533Z,3.92
2019-02-25T01:35:09.897Z,3.40
2019-02-25T01:37:36.261Z,3.47
2019-02-25T01:40:09.604Z,3.35
2019-02-25T01:42:37.859Z,3.35
2019-02-25T01:45:09.758Z,3.22
2019-02-25T01:47:35.999Z,3.35
2019-02-25T01:50:04.921Z,3.67
2019-02-25T01:52:31.198Z,3.08
2019-02-25T01:54:57.340Z,3.45
2019-02-25T01:57:23.560Z,3.52
2019-02-25T01:59:49.773Z,3.75
2019-02-25T02:02:15.931Z,3.02
2019-02-25T02:04:43.145Z,2.10
2019-02-25T02:07:09.366Z,3.98
2019-02-25T02:09:35.527Z,2.87
2019-02-25T02:12:01.782Z,2.12
2019-02-25T02:14:27.857Z,2.00
2019-02-25T02:16:54.112Z,2.72
2019-02-25T02:19:20.189Z,2.35
2019-02-25T02:21:46.661Z,1.62
2019-02-25T02:24:12.787Z,2.30
2019-02-25T02:26:39.019Z,2.42
2019-02-25T02:29:08.558Z,1.90
2019-02-25T02:31:35.176Z,1.30
2019-02-25T02:34:07.363Z,1.70
2019-02-25T02:36:36.214Z,1.95
2019-02-25T02:39:05.129Z,1.87
2019-02-25T02:41:53.751Z,2.25
2019-02-25T02:44:20.191Z,1.35
2019-02-25T02:47:16.677Z,1.75
2019-02-25T02:49:42.775Z,1.20
2019-02-25T02:52:12.896Z,1.62
2019-02-25T02:54:41.576Z,1.67
2019-02-25T02:57:12.623Z,1.45
2019-02-25T02:59:38.804Z,2.33
2019-02-25T03:02:06.570Z,3.42
2019-02-25T03:04:32.765Z,1.20
2019-02-25T03:06:58.912Z,1.47
2019-02-25T03:09:25.054Z,2.75
2019-02-25T03:11:51.275Z,2.52
2019-02-25T03:14:17.678Z,1.25
2019-02-25T03:16:43.840Z,1.07
2019-02-25T03:19:10.066Z,2.10
2019-02-25T03:21:37.148Z,1.92
2019-02-25T03:24:03.423Z,1.17
2019-02-25T03:26:30.254Z,0.93
2019-02-25T03:28:56.789Z,1.98
2019-02-25T03:31:23.177Z,2.17
2019-02-25T03:33:49.418Z,1.07
2019-02-25T03:36:18.603Z,0.90
2019-02-25T03:38:44.801Z,0.47
2019-02-25T03:41:11.026Z,2.60
2019-02-25T03:43:38.579Z,1.12
2019-02-25T03:46:04.781Z,1.82
2019-02-25T03:48:30.873Z,1.37
2019-02-25T03:50:57.108Z,1.30
2019-02-25T03:53:26.534Z,1.12
2019-02-25T03:55:53.890Z,1.10
2019-02-25T03:58:20.064Z,1.15
2019-02-25T04:00:46.355Z,1.32
2019-02-25T04:03:15.719Z,2.92
2019-02-25T04:05:42.130Z,1.92
2019-02-25T04:08:09.553Z,1.80
2019-02-25T04:10:36.907Z,1.02
2019-02-25T04:13:03.277Z,2.30
2019-02-25T04:15:31.686Z,1.17
2019-02-25T04:18:00.671Z,1.17
2019-02-25T04:20:30.780Z,2.10
2019-02-25T04:22:56.991Z,1.40
2019-02-25T04:25:26.934Z,2.50
2019-02-25T04:27:57.123Z,2.10
2019-02-25T04:30:23.470Z,0.83
2019-02-25T04:32:49.553Z,1.30
2019-02-25T04:35:18.673Z,2.15
2019-02-25T04:37:45.115Z,1.27
2019-02-25T04:40:14.236Z,1.12
2019-02-25T04:42:41.678Z,1.00
2019-02-25T04:45:14.482Z,2.50
2019-02-25T04:47:43.244Z,0.80
2019-02-25T04:50:11.060Z,1.60
2019-02-25T04:52:37.146Z,1.67
2019-02-25T04:55:08.489Z,1.20
2019-02-25T04:57:34.674Z,1.87
2019-02-25T05:00:00.865Z,1.15
2019-02-25T05:02:27.007Z,3.35
2019-02-25T05:04:57.603Z,1.47
2019-02-25T05:07:25.588Z,1.32
2019-02-25T05:09:51.741Z,1.95
2019-02-25T05:12:17.945Z,1.72
2019-02-25T05:14:44.096Z,1.37
2019-02-25T05:17:10.250Z,1.70
2019-02-25T05:19:36.379Z,1.05
2019-02-25T05:22:02.552Z,1.60
2019-02-25T05:24:28.732Z,2.50
2019-02-25T05:26:54.968Z,2.40
2019-02-25T05:29:21.062Z,2.02
2019-02-25T05:31:47.467Z,1.65
2019-02-25T05:34:13.560Z,1.60
2019-02-25T05:36:41.475Z,2.05
2019-02-25T05:39:07.706Z,0.78
2019-02-25T05:41:33.917Z,1.40
2019-02-25T05:44:00.668Z,1.77
2019-02-25T05:46:27.290Z,1.05
2019-02-25T05:48:53.671Z,1.22
2019-02-25T05:51:19.864Z,1.55
2019-02-25T05:53:46.149Z,0.90
2019-02-25T05:56:12.364Z,1.98
2019-02-25T05:58:38.655Z,1.25
2019-02-25T06:01:05.790Z,1.65
2019-02-25T06:03:31.958Z,1.87
2019-02-25T06:05:58.167Z,1.22
2019-02-25T06:08:24.334Z,1.02
2019-02-25T06:10:52.777Z,1.57
2019-02-25T06:13:18.964Z,1.62
2019-02-25T06:15:45.100Z,1.12
2019-02-25T06:18:11.281Z,1.17
2019-02-25T06:20:37.575Z,0.90
2019-02-25T06:23:03.770Z,1.42
2019-02-25T06:25:29.986Z,2.05
2019-02-25T06:27:56.283Z,1.42
2019-02-25T06:30:22.641Z,1.87
2019-02-25T06:32:49.011Z,1.42
2019-02-25T06:35:15.281Z,1.98
2019-02-25T06:37:41.434Z,1.30
2019-02-25T06:40:10.578Z,1.22
2019-02-25T06:42:36.677Z,2.50
2019-02-25T06:45:06.315Z,1.50
2019-02-25T06:47:32.398Z,2.47
2019-02-25T06:49:58.781Z,2.60
2019-02-25T06:52:25.560Z,1.80
2019-02-25T06:54:54.640Z,2.67
2019-02-25T06:57:20.802Z,1.62
2019-02-25T06:59:53.108Z,1.37
2019-02-25T07:02:19.939Z,0.95
2019-02-25T07:04:47.943Z,1.30
2019-02-25T07:07:17.600Z,2.42
2019-02-25T07:09:51.535Z,1.37
2019-02-25T07:12:28.723Z,2.00
2019-02-25T07:14:56.961Z,1.60
2019-02-25T07:17:26.250Z,0.90
2019-02-25T07:20:01.307Z,4.62
2019-02-25T07:22:30.543Z,2.08
2019-02-25T07:25:04.222Z,2.15
2019-02-25T07:27:32.453Z,2.25
2019-02-25T07:30:00.494Z,1.72
2019-02-25T07:32:34.650Z,1.75
2019-02-25T07:35:11.451Z,2.47
2019-02-25T07:37:40.179Z,2.12
2019-02-25T07:40:12.162Z,1.82
2019-02-25T07:42:43.252Z,1.52
2019-02-25T07:45:14.359Z,2.37
2019-02-25T07:48:01.275Z,2.25
2019-02-25T07:50:32.294Z,1.27
2019-02-25T07:55:43.637Z,1.32
2019-02-25T07:58:28.412Z,1.98
2019-02-25T08:00:59.854Z,1.17
2019-02-25T08:03:33.779Z,2.00
2019-02-25T08:06:07.931Z,2.85
2019-02-25T08:08:47.800Z,1.87
2019-02-25T08:11:15.893Z,2.42
2019-02-25T08:13:44.079Z,1.22
2019-02-25T08:16:18.144Z,1.80
2019-02-25T08:18:50.609Z,1.42
2019-02-25T08:21:35.733Z,2.08
2019-02-25T08:24:05.062Z,4.15
2019-02-25T08:26:39.299Z,1.82
2019-02-25T08:29:09.335Z,3.33
2019-02-25T08:31:46.590Z,1.30
2019-02-25T08:34:33.731Z,1.82
2019-02-25T08:37:08.658Z,2.65
2019-02-25T08:39:45.722Z,2.40
2019-02-25T08:42:17.572Z,3.40
2019-02-25T08:44:45.678Z,2.45
2019-02-25T08:47:19.931Z,3.60
2019-02-25T08:49:49.008Z,1.77
2019-02-25T08:52:15.324Z,1.60
2019-02-25T08:54:41.602Z,4.05
2019-02-25T08:57:07.836Z,1.87
2019-02-25T08:59:34.160Z,2.12
2019-02-25T09:02:00.414Z,2.08
2019-02-25T09:04:26.519Z,3.08
2019-02-25T09:06:54.191Z,2.08
2019-02-25T09:09:20.359Z,3.10
2019-02-25T09:11:46.570Z,2.67
2019-02-25T09:14:12.849Z,4.17
2019-02-25T09:16:39.021Z,2.40
2019-02-25T09:19:05.220Z,2.65
2019-02-25T09:21:32.157Z,2.52
2019-02-25T09:23:58.519Z,3.58
2019-02-25T09:26:24.818Z,3.65
2019-02-25T09:28:51.086Z,4.65
2019-02-25T09:31:17.410Z,3.45
2019-02-25T09:33:43.720Z,3.52
2019-02-25T09:36:09.948Z,3.37
2019-02-25T09:38:36.203Z,3.87
2019-02-25T09:41:02.379Z,2.50
2019-02-25T09:43:28.671Z,3.55
2019-02-25T09:45:54.850Z,4.87
2019-02-25T09:48:21.479Z,3.15
2019-02-25T09:50:47.884Z,3.47
2019-02-25T09:53:14.347Z,4.37
2019-02-25T09:55:40.553Z,4.28
2019-02-25T09:58:06.891Z,2.65
2019-02-25T10:00:34.873Z,3.52
2019-02-25T10:03:01.050Z,2.50
2019-02-25T10:05:27.407Z,2.77
2019-02-25T10:07:54.075Z,4.30
2019-02-25T10:10:20.880Z,2.83
2019-02-25T10:12:47.357Z,2.70
2019-02-25T10:15:16.554Z,3.12
2019-02-25T10:17:42.986Z,3.35
2019-02-25T10:20:11.146Z,2.92
2019-02-25T10:22:37.953Z,3.27
2019-02-25T10:25:06.929Z,1.82
2019-02-25T10:27:33.973Z,2.55
2019-02-25T10:30:00.298Z,4.40
2019-02-25T10:32:27.939Z,2.85
2019-02-25T10:34:54.532Z,2.40
2019-02-25T10:37:24.526Z,2.92
2019-02-25T10:39:51.464Z,2.70
2019-02-25T10:42:24.331Z,2.22
2019-02-25T10:44:51.880Z,3.58
2019-02-25T10:47:19.896Z,2.10
2019-02-25T10:49:46.233Z,3.12
2019-02-25T10:52:12.943Z,3.37
2019-02-25T10:54:40.707Z,3.87
2019-02-25T10:57:09.303Z,3.10
2019-02-25T10:59:41.340Z,4.17
2019-02-25T11:02:11.586Z,3.52
2019-02-25T11:04:38.559Z,2.60
2019-02-25T11:07:09.701Z,4.65
2019-02-25T11:09:42.039Z,4.87
2019-02-25T11:12:08.735Z,2.70
2019-02-25T11:14:35.859Z,3.83
2019-02-25T11:17:07.095Z,4.83
2019-02-25T11:19:36.030Z,3.27
2019-02-25T11:22:02.233Z,2.83
2019-02-25T11:24:28.969Z,2.30
2019-02-25T11:26:57.006Z,3.55
2019-02-25T11:29:28.285Z,4.65
2019-02-25T11:31:57.940Z,9.58
2019-02-25T11:34:24.141Z,3.30
2019-02-25T11:36:53.137Z,4.58
2019-02-25T11:39:21.583Z,4.87
2019-02-25T11:41:51.335Z,4.20
2019-02-25T11:44:19.033Z,4.75
2019-02-25T11:46:50.959Z,4.10
2019-02-25T11:49:20.460Z,3.77
2019-02-25T11:51:46.684Z,6.42
2019-02-25T11:54:13.880Z,5.37
2019-02-25T11:56:41.635Z,4.15
2019-02-25T11:59:08.314Z,4.60
2019-02-25T12:01:35.550Z,3.80
2019-02-25T12:04:01.719Z,4.87
2019-02-25T12:06:27.942Z,4.83
2019-02-25T12:08:54.050Z,5.53
2019-02-25T12:11:20.381Z,4.92
2019-02-25T12:13:46.533Z,5.87
2019-02-25T12:16:15.068Z,6.28
2019-02-25T12:18:41.184Z,4.28
2019-02-25T12:21:07.406Z,5.40
2019-02-25T12:23:33.723Z,4.85
2019-02-25T12:26:00.054Z,4.72
2019-02-25T12:28:26.155Z,5.25
2019-02-25T12:30:53.341Z,6.40
2019-02-25T12:33:19.529Z,4.70
2019-02-25T12:35:45.709Z,5.45
2019-02-25T12:38:11.865Z,4.80
2019-02-25T12:40:38.082Z,5.03
2019-02-25T12:43:04.481Z,4.10
2019-02-25T12:45:30.741Z,7.22
2019-02-25T12:47:56.933Z,6.72
2019-02-25T12:50:23.339Z,5.08
2019-02-25T12:52:49.693Z,5.33
2019-02-25T12:55:19.735Z,5.40
2019-02-25T13:00:15.619Z,5.15
2019-02-25T13:02:42.019Z,4.42
2019-02-25T13:05:10.890Z,3.67
2019-02-25T13:07:37.243Z,3.62
2019-02-25T13:10:07.158Z,6.65
2019-02-25T13:12:33.367Z,6.20
2019-02-25T13:14:59.627Z,4.78
2019-02-25T13:17:25.740Z,6.40
2019-02-25T13:19:52.084Z,3.95
2019-02-25T13:22:18.282Z,6.75
2019-02-25T13:24:44.438Z,5.08
2019-02-25T13:27:11.772Z,6.25
2019-02-25T13:29:43.616Z,3.42
2019-02-25T13:32:13.147Z,4.42
2019-02-25T13:34:39.584Z,5.10
2019-02-25T13:37:06.337Z,6.62
2019-02-25T13:39:32.527Z,5.03
2019-02-25T13:41:58.756Z,5.15
2019-02-25T13:44:25.176Z,10.23
2019-02-25T13:46:51.472Z,5.12
2019-02-25T13:49:17.619Z,5.87
2019-02-25T13:51:43.882Z,9.85
2019-02-25T13:54:10.174Z,7.97
2019-02-25T13:56:36.576Z,10.08
2019-02-25T13:59:03.209Z,7.25
2019-02-25T14:01:29.584Z,6.83
2019-02-25T14:04:05.853Z,7.20
2019-02-25T14:06:32.293Z,4.62
2019-02-25T14:08:58.501Z,3.67
2019-02-25T14:11:24.836Z,3.95
2019-02-25T14:13:51.241Z,8.88
2019-02-25T14:16:17.785Z,4.33
2019-02-25T14:18:44.313Z,3.37
2019-02-25T14:21:10.974Z,3.92
2019-02-25T14:23:38.333Z,3.55
2019-02-25T14:26:05.187Z,4.08
2019-02-25T14:28:31.400Z,5.97
2019-02-25T14:30:57.796Z,4.20
2019-02-25T14:33:24.170Z,7.35
2019-02-25T14:35:53.170Z,5.67
2019-02-25T14:38:20.429Z,4.45
2019-02-25T14:40:48.779Z,6.28
2019-02-25T14:43:15.686Z,9.33
2019-02-25T14:45:46.407Z,6.80
2019-02-25T14:48:18.191Z,7.22
2019-02-25T14:50:42.009Z,5.37
2019-02-25T14:53:11.293Z,6.08
2019-02-25T14:55:36.860Z,5.35
2019-02-25T14:58:06.760Z,8.03
2019-02-25T15:00:34.820Z,6.67
2019-02-25T15:02:59.740Z,5.72
2019-02-25T15:05:26.134Z,4.50
2019-02-25T15:07:55.432Z,6.50
2019-02-25T15:10:26.557Z,6.42
2019-02-25T15:12:53.748Z,4.17
2019-02-25T15:15:20.567Z,10.00
2019-02-25T15:17:48.128Z,6.95
2019-02-25T15:20:18.266Z,3.77
2019-02-25T15:22:45.036Z,5.65
2019-02-25T15:32:06.581Z,6.12
2019-02-25T15:34:34.380Z,4.95
2019-02-25T15:37:24.112Z,10.65
2019-02-25T15:44:02.397Z,8.20
2019-02-25T15:46:40.521Z,4.50
2019-02-25T15:49:07.718Z,6.03
2019-02-25T15:51:35.067Z,3.85
2019-02-25T15:54:02.933Z,4.10
2019-02-25T15:56:31.931Z,6.15
2019-02-25T15:58:58.375Z,5.22
2019-02-25T16:01:24.655Z,5.67
2019-02-25T16:03:51.169Z,6.30
2019-02-25T16:06:17.748Z,6.30
2019-02-25T16:08:47.493Z,7.45
2019-02-25T16:11:14.021Z,7.62
2019-02-25T16:13:40.651Z,5.72
2019-02-25T16:16:07.381Z,8.75
2019-02-25T16:18:33.842Z,8.90
2019-02-25T16:21:00.300Z,7.95
2019-02-25T16:23:27.871Z,6.90
2019-02-25T16:25:55.338Z,7.83
2019-02-25T16:28:22.966Z,6.10
2019-02-25T16:30:51.231Z,7.05
2019-02-25T16:33:17.424Z,11.57
2019-02-25T16:35:45.652Z,6.33
2019-02-25T16:38:12.917Z,5.28
2019-02-25T16:40:40.186Z,5.97
2019-02-25T16:43:09.720Z,5.50
2019-02-25T16:49:34.326Z,5.97
2019-02-25T16:52:02.316Z,7.05
2019-02-25T16:54:28.584Z,5.40
2019-02-25T16:56:55.459Z,6.90
2019-02-25T16:59:23.031Z,8.60
2019-02-25T17:01:49.888Z,7.15
2019-02-25T17:04:19.748Z,5.17
2019-02-25T17:06:44.233Z,6.70
2019-02-25T17:09:15.968Z,6.40
2019-02-25T17:14:11.768Z,5.75
2019-02-25T17:16:38.091Z,8.90
2019-02-25T17:19:04.537Z,7.60
2019-02-25T17:21:30.798Z,4.97
2019-02-25T17:23:58.178Z,7.22
2019-02-25T17:26:25.088Z,7.50
2019-02-25T17:28:51.208Z,13.95
2019-02-25T17:31:18.689Z,9.80
2019-02-25T17:33:46.715Z,9.18
2019-02-25T17:36:14.677Z,6.33
2019-02-25T17:38:43.133Z,7.70
2019-02-25T17:41:10.803Z,6.85
2019-02-25T17:43:39.100Z,6.55
2019-02-25T17:46:06.982Z,6.97
2019-02-25T17:48:34.572Z,7.03
2019-02-25T17:51:01.677Z,6.35
2019-02-25T17:53:31.045Z,7.00
2019-02-25T17:55:59.873Z,9.40
2019-02-25T17:58:27.302Z,7.60
2019-02-25T18:00:54.152Z,8.73
2019-02-25T18:03:22.547Z,7.90
2019-02-25T18:05:50.037Z,9.55
2019-02-25T18:08:16.469Z,7.65
2019-02-25T18:10:43.675Z,6.90
2019-02-25T18:13:11.088Z,7.47
2019-02-25T18:15:37.670Z,9.20
2019-02-25T18:18:07.040Z,7.05
2019-02-25T18:20:32.481Z,29.52
2019-02-25T18:22:59.821Z,7.20
2019-02-25T18:25:26.262Z,8.65
2019-02-25T18:27:52.613Z,8.30
2019-02-25T18:30:23.327Z,8.58
2019-02-25T18:32:50.523Z,7.03
2019-02-25T18:35:20.639Z,7.83
2019-02-25T18:37:47.272Z,7.03
2019-02-25T18:40:16.347Z,9.08
2019-02-25T18:42:44.107Z,13.07
2019-02-25T18:45:16.529Z,8.70
2019-02-25T18:47:44.355Z,8.05
2019-02-25T18:50:21.685Z,11.40
2019-02-25T18:52:50.253Z,6.55
2019-02-25T18:55:19.367Z,8.35
2019-02-25T18:57:47.718Z,8.68
2019-02-25T19:00:20.532Z,11.22
2019-02-25T19:02:48.169Z,8.63
2019-02-25T19:05:15.792Z,9.63
2019-02-25T19:07:44.446Z,12.37
2019-02-25T19:59:26.269Z,9.98
2019-02-25T20:01:53.023Z,9.98
2019-02-25T20:04:20.689Z,9.93
2019-02-25T20:06:48.935Z,13.35
2019-02-25T20:09:16.626Z,11.45
2019-02-25T20:11:45.284Z,9.55
2019-02-25T20:14:11.189Z,11.10
2019-02-25T20:16:37.686Z,12.20
2019-02-25T20:19:04.655Z,11.18
2019-02-25T20:21:32.100Z,10.58
2019-02-25T20:23:58.302Z,11.40
2019-02-25T20:26:26.845Z,9.53
2019-02-25T20:28:54.485Z,10.15
2019-02-25T20:31:21.224Z,11.65
2019-02-25T20:33:47.431Z,9.15
2019-02-25T20:36:17.238Z,9.48
2019-02-25T20:38:41.670Z,8.33
2019-02-25T20:41:08.123Z,9.93
2019-02-25T20:43:34.421Z,7.80
2019-02-25T20:46:03.236Z,10.35
2019-02-25T20:48:29.155Z,7.92
2019-02-25T20:50:55.386Z,8.60
2019-02-25T20:53:22.975Z,10.18
2019-02-25T20:55:50.796Z,9.15
2019-02-25T20:58:18.825Z,8.65
2019-02-25T21:00:47.036Z,8.10
2019-02-25T21:03:16.166Z,8.18
2019-02-25T21:05:42.344Z,9.30
2019-02-25T21:08:08.568Z,8.50
2019-02-25T21:10:35.686Z,6.78
2019-02-25T21:13:02.384Z,9.30
2019-02-25T21:15:33.150Z,6.92
2019-02-25T21:17:59.978Z,6.78
2019-02-25T21:20:28.838Z,6.83
2019-02-25T21:22:57.300Z,7.00
2019-02-25T21:25:26.456Z,8.90
2019-02-25T21:27:50.738Z,7.90
2019-02-25T21:30:20.449Z,7.42
2019-02-25T21:32:47.392Z,9.98
2019-02-25T21:35:16.285Z,9.35
2019-02-25T21:37:47.329Z,8.15
2019-02-25T21:40:14.126Z,6.80
2019-02-25T21:42:43.921Z,7.40
2019-02-25T21:45:18.024Z,8.20
2019-02-25T21:47:43.582Z,10.48
2019-02-25T21:50:12.118Z,8.88
2019-02-25T21:52:38.906Z,7.95
2019-02-25T21:55:09.374Z,7.55
2019-02-25T21:57:37.627Z,7.80
2019-02-25T22:00:19.098Z,8.15
2019-02-25T22:02:48.227Z,8.83
2019-02-25T22:05:16.710Z,8.98
2019-02-25T22:07:44.803Z,8.55
2019-02-25T22:10:12.484Z,8.13
2019-02-25T22:12:40.528Z,8.58
2019-02-25T22:15:13.608Z,6.85
2019-02-25T22:17:43.343Z,7.35
2019-02-25T22:20:14.387Z,7.53
2019-02-25T22:22:41.356Z,8.15
2019-02-25T22:25:20.181Z,9.03
2019-02-25T22:27:46.631Z,13.00
2019-02-25T22:30:16.921Z,8.23
2019-02-25T22:32:43.390Z,9.43
2019-02-25T22:35:12.835Z,14.20
2019-02-25T22:37:39.117Z,8.30
2019-02-25T22:40:15.059Z,8.75
2019-02-25T22:42:42.052Z,7.65
2019-02-25T22:45:16.440Z,9.55
2019-02-25T22:47:43.021Z,8.68
2019-02-25T22:50:15.126Z,9.53
2019-02-25T22:52:41.347Z,10.35
2019-02-25T22:55:12.958Z,9.15
2019-02-25T22:57:40.975Z,11.20
2019-02-25T23:00:33.547Z,10.70
2019-02-25T23:03:02.003Z,10.13
2019-02-25T23:05:29.378Z,9.38
2019-02-25T23:07:55.576Z,10.43
2019-02-25T23:10:24.216Z,12.20
2019-02-25T23:12:55.285Z,9.25
2019-02-25T23:15:23.301Z,10.38
2019-02-25T23:17:49.756Z,10.13
2019-02-25T23:20:15.971Z,10.58
2019-02-25T23:22:42.271Z,9.30
2019-02-25T23:25:09.872Z,10.40
2019-02-25T23:27:38.580Z,9.93
2019-02-25T23:30:08.539Z,11.73
2019-02-25T23:32:38.838Z,14.13
2019-02-25T23:35:09.429Z,8.30
2019-02-25T23:37:34.056Z,10.15
2019-02-25T23:40:04.445Z,10.00
2019-02-25T23:42:37.102Z,10.78
2019-02-25T23:45:05.786Z,8.15
2019-02-25T23:47:34.032Z,12.55
2019-02-25T23:50:01.181Z,9.65
2019-02-25T23:52:33.656Z,9.43
2019-02-25T23:55:00.237Z,11.08
2019-02-25T23:57:28.743Z,10.82
2019-02-25T23:59:55.758Z,10.72
